createdAt,value
2023-01-22T00:02:06.204Z,8.30
2023-01-22T00:04:33.429Z,8.63
2023-01-22T00:07:00.542Z,8.70
2023-01-22T00:09:27.673Z,8.63
2023-01-22T00:11:54.749Z,9.07
2023-01-22T00:14:21.876Z,7.63
2023-01-22T00:16:49.032Z,8.20
2023-01-22T00:19:16.081Z,8.20
2023-01-22T00:21:43.215Z,8.68
2023-01-22T00:24:10.593Z,8.43
2023-01-22T00:26:38.169Z,7.53
2023-01-22T00:29:05.309Z,7.63
2023-01-22T00:31:32.510Z,7.35
2023-01-22T00:33:59.677Z,7.00
2023-01-22T00:36:26.830Z,7.53
2023-01-22T00:38:53.952Z,8.23
2023-01-22T00:41:21.431Z,7.18
2023-01-22T00:43:50.594Z,8.25
2023-01-22T00:46:19.066Z,7.32
2023-01-22T00:48:46.306Z,7.15
2023-01-22T00:51:14.816Z,7.05
2023-01-22T00:53:43.624Z,7.40
2023-01-22T00:56:11.024Z,6.90
2023-01-22T00:58:38.258Z,6.53
2023-01-22T01:01:06.022Z,7.68
2023-01-22T01:03:33.252Z,7.03
2023-01-22T01:06:05.480Z,6.90
2023-01-22T01:08:33.757Z,7.00
2023-01-22T01:11:02.175Z,6.45
2023-01-22T01:13:29.864Z,7.18
2023-01-22T01:16:01.484Z,7.10
2023-01-22T01:18:29.057Z,7.72
2023-01-22T01:20:56.818Z,8.55
2023-01-22T01:23:24.584Z,9.05
2023-01-22T01:25:51.938Z,6.88
2023-01-22T01:28:19.537Z,7.75
2023-01-22T01:30:47.063Z,8.30
2023-01-22T01:33:14.147Z,8.13
2023-01-22T01:35:41.289Z,8.70
2023-01-22T01:38:08.388Z,8.60
2023-01-22T01:40:35.521Z,8.00
2023-01-22T01:43:02.645Z,8.52
2023-01-22T01:45:30.950Z,7.80
2023-01-22T01:48:03.937Z,8.10
2023-01-22T01:50:31.240Z,8.25
2023-01-22T01:52:59.787Z,8.55
2023-01-22T01:55:30.911Z,8.30
2023-01-22T01:58:01.350Z,7.37
2023-01-22T02:00:32.017Z,8.05
2023-01-22T02:02:59.598Z,7.72
2023-01-22T02:05:29.100Z,9.10
2023-01-22T02:07:56.319Z,8.63
2023-01-22T02:10:23.432Z,8.25
2023-01-22T02:12:50.541Z,7.05
2023-01-22T02:15:17.688Z,8.93
2023-01-22T02:17:44.793Z,7.53
2023-01-22T02:20:12.059Z,7.82
2023-01-22T02:22:39.893Z,7.25
2023-01-22T02:25:07.989Z,8.05
2023-01-22T02:27:35.146Z,7.75
2023-01-22T02:30:02.516Z,7.47
2023-01-22T02:32:29.654Z,8.55
2023-01-22T02:34:56.792Z,8.10
2023-01-22T02:37:23.948Z,8.85
2023-01-22T02:39:51.103Z,7.43
2023-01-22T02:42:18.294Z,8.18
2023-01-22T02:44:45.407Z,8.48
2023-01-22T02:47:12.685Z,8.40
2023-01-22T02:49:39.875Z,8.63
2023-01-22T02:52:06.975Z,8.10
2023-01-22T02:54:34.018Z,8.65
2023-01-22T02:57:01.098Z,7.53
2023-01-22T02:59:28.768Z,8.25
2023-01-22T03:01:57.099Z,7.38
2023-01-22T03:04:24.602Z,9.20
2023-01-22T03:06:51.691Z,8.93
2023-01-22T03:09:18.793Z,8.90
2023-01-22T03:11:46.902Z,8.80
2023-01-22T03:14:33.526Z,8.23
2023-01-22T03:17:19.818Z,7.45
2023-01-22T03:20:05.830Z,8.85
2023-01-22T03:22:33.183Z,8.80
2023-01-22T03:25:01.375Z,7.28
2023-01-22T03:27:29.466Z,8.80
2023-01-22T03:29:57.043Z,5.78
2023-01-22T03:32:24.900Z,9.07
2023-01-22T03:34:53.678Z,7.00
2023-01-22T03:37:20.826Z,6.05
2023-01-22T03:39:48.155Z,7.60
2023-01-22T03:42:15.284Z,8.15
2023-01-22T03:44:42.505Z,7.78
2023-01-22T03:47:09.603Z,8.80
2023-01-22T03:49:36.804Z,7.10
2023-01-22T03:52:04.033Z,8.40
2023-01-22T03:54:31.283Z,8.93
2023-01-22T03:56:58.356Z,7.18
2023-01-22T03:59:25.430Z,9.30
2023-01-22T04:01:53.729Z,7.07
2023-01-22T04:04:21.232Z,9.05
2023-01-22T04:06:48.321Z,7.88
2023-01-22T04:09:15.763Z,7.43
2023-01-22T04:11:42.875Z,7.28
2023-01-22T04:14:09.950Z,7.07
2023-01-22T04:16:37.138Z,8.05
2023-01-22T04:19:04.350Z,7.57
2023-01-22T04:21:31.504Z,8.70
2023-01-22T04:23:58.609Z,7.50
2023-01-22T04:26:25.791Z,8.10
2023-01-22T04:28:53.053Z,8.05
2023-01-22T04:31:20.282Z,7.47
2023-01-22T04:33:47.462Z,7.00
2023-01-22T04:36:14.579Z,6.65
2023-01-22T04:38:41.664Z,8.15
2023-01-22T04:41:08.857Z,7.55
2023-01-22T04:43:35.924Z,7.43
2023-01-22T04:46:03.167Z,7.13
2023-01-22T04:48:30.443Z,7.28
2023-01-22T04:50:57.615Z,6.05
2023-01-22T04:53:24.765Z,6.38
2023-01-22T04:55:51.832Z,7.07
2023-01-22T04:58:19.066Z,6.60
2023-01-22T05:00:46.289Z,6.75
2023-01-22T05:03:13.464Z,7.07
2023-01-22T05:05:40.587Z,8.07
2023-01-22T05:08:07.653Z,6.85
2023-01-22T05:10:34.809Z,5.93
2023-01-22T05:13:05.816Z,5.72
2023-01-22T05:15:33.077Z,6.82
2023-01-22T05:18:00.425Z,6.10
2023-01-22T05:20:27.805Z,6.18
2023-01-22T05:22:54.952Z,6.00
2023-01-22T05:25:22.205Z,5.93
2023-01-22T05:27:49.245Z,6.22
2023-01-22T05:30:16.798Z,6.10
2023-01-22T05:32:44.195Z,6.82
2023-01-22T05:35:11.364Z,6.22
2023-01-22T05:37:38.467Z,6.57
2023-01-22T05:40:05.908Z,6.10
2023-01-22T05:42:33.082Z,5.60
2023-01-22T05:45:00.246Z,6.07
2023-01-22T05:47:27.333Z,4.95
2023-01-22T05:49:54.493Z,4.43
2023-01-22T05:52:21.603Z,4.40
2023-01-22T05:54:48.855Z,3.75
2023-01-22T05:57:16.122Z,3.65
2023-01-22T05:59:43.219Z,4.10
2023-01-22T06:02:10.478Z,3.90
2023-01-22T06:04:37.639Z,3.97
2023-01-22T06:07:04.865Z,3.47
2023-01-22T06:09:31.921Z,3.47
2023-01-22T06:11:59.061Z,4.20
2023-01-22T06:14:26.188Z,4.10
2023-01-22T06:16:53.272Z,3.00
2023-01-22T06:19:20.360Z,3.55
2023-01-22T06:21:47.480Z,4.00
2023-01-22T06:24:14.627Z,3.45
2023-01-22T06:26:41.750Z,4.32
2023-01-22T06:29:08.866Z,3.53
2023-01-22T06:31:36.008Z,3.30
2023-01-22T06:34:05.553Z,3.15
2023-01-22T06:36:32.807Z,3.63
2023-01-22T06:38:59.965Z,4.18
2023-01-22T06:41:27.203Z,3.83
2023-01-22T06:43:54.363Z,3.80
2023-01-22T06:46:21.600Z,3.72
2023-01-22T06:48:50.000Z,3.90
2023-01-22T06:51:17.298Z,4.25
2023-01-22T06:53:44.587Z,3.85
2023-01-22T06:56:11.734Z,3.80
2023-01-22T06:58:38.850Z,4.00
2023-01-22T07:01:06.791Z,3.63
2023-01-22T07:03:34.004Z,3.55
2023-01-22T07:06:02.330Z,4.00
2023-01-22T07:08:30.913Z,3.58
2023-01-22T07:10:58.182Z,3.65
2023-01-22T07:13:25.432Z,3.72
2023-01-22T07:15:53.110Z,4.28
2023-01-22T07:18:21.911Z,4.43
2023-01-22T07:20:48.999Z,4.57
2023-01-22T07:23:16.209Z,3.30
2023-01-22T07:25:44.738Z,3.67
2023-01-22T07:28:13.182Z,3.28
2023-01-22T07:30:41.793Z,3.83
2023-01-22T07:33:11.085Z,3.25
2023-01-22T07:35:38.235Z,4.22
2023-01-22T07:38:05.396Z,3.65
2023-01-22T07:40:32.645Z,3.38
2023-01-22T07:42:59.726Z,3.72
2023-01-22T07:45:26.892Z,4.20
2023-01-22T07:47:55.300Z,4.53
2023-01-22T07:50:23.326Z,4.28
2023-01-22T07:52:50.442Z,3.78
2023-01-22T07:55:17.933Z,3.97
2023-01-22T07:57:45.102Z,3.95
2023-01-22T08:00:13.024Z,3.80
2023-01-22T08:02:42.195Z,3.53
2023-01-22T08:05:09.887Z,3.67
2023-01-22T08:07:37.018Z,4.38
2023-01-22T08:10:05.127Z,5.00
2023-01-22T08:12:32.323Z,3.53
2023-01-22T08:14:59.479Z,3.92
2023-01-22T08:17:26.620Z,3.70
2023-01-22T08:19:53.749Z,4.40
2023-01-22T08:22:21.156Z,4.00
2023-01-22T08:24:48.211Z,4.35
2023-01-22T08:27:15.403Z,3.97
2023-01-22T08:29:42.541Z,4.22
2023-01-22T08:32:09.876Z,4.22
2023-01-22T08:34:37.130Z,3.97
2023-01-22T08:37:04.270Z,4.20
2023-01-22T08:39:31.462Z,4.47
2023-01-22T08:41:58.910Z,3.90
2023-01-22T08:44:26.507Z,4.65
2023-01-22T08:46:53.612Z,3.53
2023-01-22T08:49:22.348Z,4.30
2023-01-22T08:51:50.439Z,4.85
2023-01-22T08:54:20.625Z,4.22
2023-01-22T08:56:48.026Z,4.43
2023-01-22T08:59:15.733Z,4.05
2023-01-22T09:01:42.896Z,4.57
2023-01-22T09:04:11.032Z,3.67
2023-01-22T09:06:38.708Z,4.25
2023-01-22T09:09:06.209Z,4.13
2023-01-22T09:11:33.490Z,3.90
2023-01-22T09:14:00.826Z,4.50
2023-01-22T09:16:28.473Z,4.10
2023-01-22T09:18:55.716Z,4.75
2023-01-22T09:21:22.843Z,4.03
2023-01-22T09:23:49.985Z,4.75
2023-01-22T09:26:17.337Z,3.53
2023-01-22T09:28:44.430Z,4.40
2023-01-22T09:31:14.566Z,4.53
2023-01-22T09:33:41.795Z,3.50
2023-01-22T09:36:09.045Z,4.20
2023-01-22T09:38:36.191Z,3.95
2023-01-22T09:41:05.712Z,3.85
2023-01-22T09:43:38.276Z,3.75
2023-01-22T09:46:10.391Z,3.92
2023-01-22T09:51:05.371Z,3.85
2023-01-22T09:53:32.840Z,4.25
2023-01-22T09:56:00.530Z,3.55
2023-01-22T09:58:27.881Z,3.90
2023-01-22T10:01:00.181Z,3.80
2023-01-22T10:03:32.192Z,3.90
2023-01-22T10:06:02.098Z,3.92
2023-01-22T10:08:39.311Z,4.05
2023-01-22T10:11:09.652Z,3.60
2023-01-22T10:13:38.172Z,3.60
2023-01-22T10:16:05.949Z,3.85
2023-01-22T10:18:51.488Z,4.10
2023-01-22T10:21:23.653Z,4.00
2023-01-22T10:23:50.960Z,3.33
2023-01-22T10:26:21.918Z,3.88
2023-01-22T10:28:50.366Z,3.30
2023-01-22T10:31:23.943Z,3.88
2023-01-22T10:33:58.625Z,3.85
2023-01-22T10:36:25.939Z,3.95
2023-01-22T10:39:02.979Z,4.22
2023-01-22T10:41:30.748Z,3.90
2023-01-22T10:44:08.333Z,3.78
2023-01-22T10:46:35.401Z,4.07
2023-01-22T10:49:03.579Z,4.10
2023-01-22T10:51:35.153Z,4.70
2023-01-22T10:54:02.386Z,3.65
2023-01-22T10:56:34.298Z,3.70
2023-01-22T11:01:30.726Z,4.03
2023-01-22T11:03:57.851Z,4.22
2023-01-22T11:06:40.038Z,3.83
2023-01-22T11:11:37.910Z,3.83
2023-01-22T11:14:12.662Z,4.40
2023-01-22T11:16:40.940Z,3.97
2023-01-22T11:19:12.694Z,3.40
2023-01-22T11:21:53.271Z,3.88
2023-01-22T11:24:23.040Z,4.10
2023-01-22T11:27:16.185Z,3.80
2023-01-22T11:29:49.302Z,3.92
2023-01-22T11:32:34.720Z,3.78
2023-01-22T11:35:01.859Z,3.70
2023-01-22T11:37:55.369Z,4.32
2023-01-22T11:40:22.587Z,4.63
2023-01-22T11:43:22.154Z,3.67
2023-01-22T11:46:03.063Z,4.13
2023-01-22T11:48:36.377Z,3.72
2023-01-22T11:51:21.162Z,4.32
2023-01-22T11:53:48.345Z,4.47
2023-01-22T11:56:30.323Z,3.78
2023-01-22T11:59:12.588Z,4.00
2023-01-22T12:04:22.283Z,4.88
2023-01-22T12:06:59.370Z,4.15
2023-01-22T12:09:35.928Z,4.10
2023-01-22T12:12:05.933Z,3.95
2023-01-22T12:14:50.829Z,4.20
2023-01-22T12:17:27.167Z,4.15
2023-01-22T12:19:54.251Z,3.95
2023-01-22T12:22:27.827Z,3.90
2023-01-22T12:25:03.904Z,4.57
2023-01-22T12:27:33.396Z,4.70
2023-01-22T12:30:23.790Z,4.47
2023-01-22T12:32:55.462Z,5.07
2023-01-22T12:35:23.405Z,5.22
2023-01-22T12:37:53.606Z,5.05
2023-01-22T12:40:26.772Z,5.03
2023-01-22T12:43:03.914Z,4.55
2023-01-22T12:45:33.865Z,4.80
2023-01-22T12:48:05.995Z,4.28
2023-01-22T12:53:01.254Z,4.43
2023-01-22T12:55:32.844Z,4.25
2023-01-22T12:58:00.173Z,4.45
2023-01-22T13:00:34.951Z,5.43
2023-01-22T13:03:31.054Z,4.63
2023-01-22T13:05:59.475Z,4.63
2023-01-22T13:08:43.752Z,5.15
2023-01-22T13:11:12.549Z,4.80
2023-01-22T13:13:44.804Z,4.65
2023-01-22T13:16:15.266Z,5.55
2023-01-22T13:18:44.528Z,4.75
2023-01-22T13:21:15.903Z,4.63
2023-01-22T13:23:47.129Z,4.70
2023-01-22T13:26:19.148Z,4.75
2023-01-22T13:29:09.681Z,4.63
2023-01-22T13:31:37.133Z,4.95
2023-01-22T13:34:08.768Z,4.05
2023-01-22T13:36:40.396Z,5.18
2023-01-22T13:39:07.527Z,5.18
2023-01-22T13:41:38.563Z,4.47
2023-01-22T13:44:06.750Z,4.57
2023-01-22T13:46:37.375Z,5.22
2023-01-22T13:49:06.494Z,4.63
2023-01-22T13:51:34.681Z,4.82
2023-01-22T13:54:02.492Z,4.22
2023-01-22T13:56:29.914Z,4.38
2023-01-22T13:59:07.890Z,4.22
2023-01-22T14:01:35.979Z,4.30
2023-01-22T14:04:04.223Z,4.88
2023-01-22T14:06:31.676Z,4.75
2023-01-22T14:09:00.308Z,4.05
2023-01-22T14:11:37.668Z,3.90
2023-01-22T14:14:14.713Z,3.67
2023-01-22T14:16:42.017Z,4.57
2023-01-22T14:19:09.128Z,4.30
2023-01-22T14:21:37.378Z,5.50
2023-01-22T14:24:04.886Z,4.95
2023-01-22T14:26:32.182Z,4.53
2023-01-22T14:28:59.246Z,5.15
2023-01-22T14:31:26.399Z,3.95
2023-01-22T14:33:53.563Z,4.90
2023-01-22T14:36:20.729Z,4.20
2023-01-22T14:38:49.598Z,4.70
2023-01-22T14:41:16.772Z,4.97
2023-01-22T14:43:44.024Z,4.63
2023-01-22T14:46:11.242Z,4.93
2023-01-22T14:48:39.363Z,5.50
2023-01-22T14:51:10.885Z,4.20
2023-01-22T14:53:38.664Z,4.47
2023-01-22T14:56:06.033Z,4.38
2023-01-22T14:58:33.381Z,4.35
2023-01-22T15:01:00.607Z,4.00
2023-01-22T15:03:29.815Z,4.55
2023-01-22T15:05:57.102Z,4.38
2023-01-22T15:08:24.279Z,4.60
2023-01-22T15:10:51.394Z,4.20
2023-01-22T15:13:18.507Z,4.78
2023-01-22T15:15:45.655Z,4.45
2023-01-22T15:18:12.877Z,4.65
2023-01-22T15:20:40.026Z,3.60
2023-01-22T15:23:07.111Z,4.20
2023-01-22T15:25:34.196Z,4.07
2023-01-22T15:28:02.872Z,3.85
2023-01-22T15:30:30.228Z,4.03
2023-01-22T15:32:57.335Z,4.43
2023-01-22T15:35:24.427Z,4.20
2023-01-22T15:37:51.700Z,4.22
2023-01-22T15:40:19.285Z,4.22
2023-01-22T15:42:46.580Z,4.15
2023-01-22T15:45:13.855Z,3.60
2023-01-22T15:47:41.036Z,4.60
2023-01-22T15:50:08.487Z,4.45
2023-01-22T15:52:35.650Z,4.53
2023-01-22T15:55:02.914Z,4.20
2023-01-22T15:57:30.078Z,4.05
2023-01-22T15:59:57.219Z,4.93
2023-01-22T16:02:24.491Z,4.50
2023-01-22T16:04:51.658Z,4.20
2023-01-22T16:07:18.732Z,4.32
2023-01-22T16:09:45.994Z,4.07
2023-01-22T16:12:13.329Z,4.28
2023-01-22T16:14:40.583Z,5.20
2023-01-22T16:17:07.773Z,4.60
2023-01-22T16:19:34.829Z,3.97
2023-01-22T16:22:02.018Z,4.78
2023-01-22T16:24:29.232Z,4.80
2023-01-22T16:26:56.390Z,4.55
2023-01-22T16:29:23.520Z,4.60
2023-01-22T16:31:50.799Z,4.78
2023-01-22T16:34:19.607Z,4.30
2023-01-22T16:36:46.852Z,4.53
2023-01-22T16:39:17.447Z,5.43
2023-01-22T16:41:46.510Z,7.13
2023-01-22T16:44:16.022Z,5.47
2023-01-22T16:46:44.436Z,4.57
2023-01-22T16:49:16.228Z,5.30
2023-01-22T16:51:45.401Z,4.72
2023-01-22T16:54:19.538Z,4.93
2023-01-22T16:56:46.918Z,5.28
2023-01-22T16:59:14.107Z,4.70
2023-01-22T17:01:41.690Z,4.38
2023-01-22T17:04:09.119Z,4.35
2023-01-22T17:06:40.880Z,4.78
2023-01-22T17:09:08.952Z,3.92
2023-01-22T17:11:36.083Z,5.28
2023-01-22T17:14:03.250Z,4.75
2023-01-22T17:16:30.395Z,5.65
2023-01-22T17:18:59.034Z,4.50
2023-01-22T17:21:26.244Z,4.75
2023-01-22T17:23:53.497Z,4.78
2023-01-22T17:26:20.552Z,4.57
2023-01-22T17:28:47.787Z,4.97
2023-01-22T17:31:20.527Z,4.70
2023-01-22T17:33:48.055Z,4.20
2023-01-22T17:36:16.121Z,4.38
2023-01-22T17:38:43.598Z,4.80
2023-01-22T17:41:12.394Z,5.43
2023-01-22T17:43:39.548Z,4.38
2023-01-22T17:46:14.578Z,4.78
2023-01-22T17:48:41.960Z,4.50
2023-01-22T17:51:10.554Z,4.25
2023-01-22T17:53:38.738Z,4.22
2023-01-22T17:56:10.408Z,3.90
2023-01-22T17:58:37.928Z,5.07
2023-01-22T18:01:06.219Z,4.60
2023-01-22T18:03:33.770Z,4.60
2023-01-22T18:06:01.194Z,4.10
2023-01-22T18:08:29.614Z,4.40
2023-01-22T18:10:57.576Z,4.28
2023-01-22T18:13:24.776Z,3.97
2023-01-22T18:15:52.079Z,4.50
2023-01-22T18:18:19.418Z,3.88
2023-01-22T18:20:47.278Z,4.05
2023-01-22T18:23:15.467Z,4.07
2023-01-22T18:25:49.740Z,4.50
2023-01-22T18:28:19.887Z,4.40
2023-01-22T18:30:47.549Z,3.85
2023-01-22T18:33:15.000Z,4.13
2023-01-22T18:35:42.791Z,4.35
2023-01-22T18:38:09.939Z,3.97
2023-01-22T18:40:37.585Z,3.40
2023-01-22T18:43:10.081Z,3.85
2023-01-22T18:45:37.431Z,4.32
2023-01-22T18:48:04.842Z,4.45
2023-01-22T18:50:31.963Z,3.53
2023-01-22T18:53:02.099Z,4.30
2023-01-22T18:55:30.867Z,3.20
2023-01-22T18:58:07.122Z,4.15
2023-01-22T19:00:34.290Z,4.03
2023-01-22T19:03:01.759Z,3.88
2023-01-22T19:05:29.406Z,3.67
2023-01-22T19:07:56.555Z,3.72
2023-01-22T19:10:23.965Z,3.67
2023-01-22T19:12:51.108Z,4.03
2023-01-22T19:15:18.644Z,4.85
2023-01-22T19:17:45.822Z,4.60
2023-01-22T19:20:15.231Z,5.10
2023-01-22T19:22:42.477Z,4.63
2023-01-22T19:25:10.865Z,4.43
2023-01-22T19:27:38.858Z,4.93
2023-01-22T19:30:06.703Z,4.78
2023-01-22T19:32:36.265Z,4.38
2023-01-22T19:35:03.462Z,4.43
2023-01-22T19:37:30.633Z,4.25
2023-01-22T19:39:58.580Z,5.00
2023-01-22T19:42:26.152Z,3.67
2023-01-22T19:44:53.411Z,3.83
2023-01-22T19:47:20.989Z,3.95
2023-01-22T19:49:48.238Z,4.47
2023-01-22T19:52:15.575Z,4.38
2023-01-22T19:54:47.338Z,4.20
2023-01-22T19:57:15.658Z,4.55
2023-01-22T19:59:43.031Z,3.45
2023-01-22T20:02:13.212Z,3.88
2023-01-22T20:04:41.010Z,4.18
2023-01-22T20:07:08.266Z,3.88
2023-01-22T20:09:36.249Z,4.40
2023-01-22T20:12:05.429Z,4.10
2023-01-22T20:14:34.149Z,4.25
2023-01-22T20:17:02.229Z,5.05
2023-01-22T20:19:30.350Z,4.30
2023-01-22T20:21:57.558Z,3.90
2023-01-22T20:24:24.745Z,4.07
2023-01-22T20:26:54.386Z,5.32
2023-01-22T20:29:21.500Z,6.25
2023-01-22T20:31:51.248Z,4.85
2023-01-22T20:34:18.590Z,4.82
2023-01-22T20:36:45.896Z,4.35
2023-01-22T20:39:13.505Z,4.57
2023-01-22T20:41:40.651Z,4.40
2023-01-22T20:44:09.092Z,4.70
2023-01-22T20:46:37.489Z,5.68
2023-01-22T20:49:04.823Z,4.32
2023-01-22T20:51:31.976Z,4.25
2023-01-22T20:53:59.167Z,5.13
2023-01-22T20:56:28.879Z,4.53
2023-01-22T20:59:00.937Z,3.78
2023-01-22T21:03:56.300Z,4.00
2023-01-22T21:06:24.492Z,4.20
2023-01-22T21:08:52.956Z,4.28
2023-01-22T21:11:21.502Z,4.63
2023-01-22T21:13:49.570Z,5.35
2023-01-22T21:16:18.336Z,5.10
2023-01-22T21:18:46.859Z,5.15
2023-01-22T21:21:17.613Z,5.00
2023-01-22T21:23:45.270Z,4.32
2023-01-22T21:26:14.824Z,4.60
2023-01-22T21:28:42.087Z,4.60
2023-01-22T21:31:10.422Z,4.85
2023-01-22T21:33:37.727Z,4.40
2023-01-22T21:36:05.792Z,5.07
2023-01-22T21:38:33.422Z,4.72
2023-01-22T21:41:08.511Z,4.72
2023-01-22T21:43:54.819Z,5.28
2023-01-22T21:46:22.325Z,4.72
2023-01-22T21:48:49.807Z,5.32
2023-01-22T21:51:16.957Z,4.93
2023-01-22T21:53:45.042Z,4.70
2023-01-22T21:56:12.225Z,4.65
2023-01-22T21:58:42.318Z,4.30
2023-01-22T22:01:09.806Z,4.20
2023-01-22T22:03:37.096Z,4.28
2023-01-22T22:06:04.316Z,5.10
2023-01-22T22:08:31.386Z,4.43
2023-01-22T22:10:58.557Z,4.20
2023-01-22T22:13:25.923Z,4.47
2023-01-22T22:15:53.074Z,4.68
2023-01-22T22:18:20.336Z,4.00
2023-01-22T22:20:47.450Z,5.28
2023-01-22T22:23:14.600Z,4.63
2023-01-22T22:25:41.748Z,4.68
2023-01-22T22:28:08.829Z,4.88
2023-01-22T22:30:36.019Z,3.80
2023-01-22T22:33:03.102Z,4.38
2023-01-22T22:35:30.989Z,5.10
2023-01-22T22:37:58.182Z,4.30
2023-01-22T22:40:25.262Z,3.83
2023-01-22T22:42:52.415Z,4.65
2023-01-22T22:45:19.571Z,4.07
2023-01-22T22:47:46.670Z,4.28
2023-01-22T22:50:13.769Z,4.75
2023-01-22T22:52:40.941Z,4.50
2023-01-22T22:55:08.271Z,4.70
2023-01-22T22:57:35.393Z,4.90
2023-01-22T23:00:06.472Z,3.67
2023-01-22T23:02:33.590Z,4.68
2023-01-22T23:05:00.688Z,4.95
2023-01-22T23:07:27.784Z,4.22
2023-01-22T23:09:55.027Z,4.43
2023-01-22T23:12:22.163Z,4.40
2023-01-22T23:14:49.285Z,3.97
2023-01-22T23:17:16.459Z,4.13
2023-01-22T23:19:43.559Z,5.50
2023-01-22T23:22:10.702Z,4.57
2023-01-22T23:24:37.839Z,4.80
2023-01-22T23:27:05.181Z,5.30
2023-01-22T23:29:32.358Z,4.43
2023-01-22T23:31:59.668Z,4.53
2023-01-22T23:34:26.769Z,4.25
2023-01-22T23:36:53.908Z,4.47
2023-01-22T23:39:21.584Z,4.28
2023-01-22T23:41:48.778Z,5.28
2023-01-22T23:44:16.092Z,4.50
2023-01-22T23:46:43.449Z,5.78
2023-01-22T23:49:11.115Z,4.93
2023-01-22T23:51:41.010Z,4.68
2023-01-22T23:54:08.785Z,4.18
2023-01-22T23:56:35.982Z,4.32
2023-01-22T23:59:03.073Z,5.20
